Time;durP1;ratioP1;P1;durP2;ratioP2;P2;SDS_P1;SDS_P2;PMS_P1;PMS_P2;Temp;Humidity;BMP_temperature;BMP_pressure;BME280_temperature;BME280_humidity;BME280_pressure;Samples;Min_cycle;Max_cycle;Signal;HPM_P1;HPM_P2
2023/05/11 00:00:45;;;;;;;23.55;14.95;;;;;;;13.04;100.00;100665.25;4906566;29;20180;-81
2023/05/11 00:03:12;;;;;;;19.55;15.00;;;;;;;13.00;100.00;100663.56;4911901;29;20400;-80
2023/05/11 00:05:38;;;;;;;20.13;15.00;;;;;;;12.95;100.00;100660.16;4912800;29;20491;-87
2023/05/11 00:08:04;;;;;;;24.83;16.08;;;;;;;12.93;100.00;100661.94;4912795;29;20050;-80
2023/05/11 00:10:31;;;;;;;21.55;15.93;;;;;;;12.89;100.00;100667.28;4912787;29;20123;-85
2023/05/11 00:12:57;;;;;;;23.92;16.52;;;;;;;12.84;100.00;100665.59;4915891;29;20044;-80
2023/05/11 00:15:24;;;;;;;20.38;14.80;;;;;;;12.78;100.00;100663.97;4908523;29;20052;-80
2023/05/11 00:17:51;;;;;;;20.73;15.30;;;;;;;12.77;100.00;100666.63;4916820;29;20044;-84
2023/05/11 00:20:17;;;;;;;20.50;13.82;;;;;;;12.72;100.00;100656.19;4900797;29;20042;-93
2023/05/11 00:22:44;;;;;;;20.92;13.13;;;;;;;12.69;100.00;100662.34;4905540;29;20052;-80
2023/05/11 00:25:10;;;;;;;17.85;12.05;;;;;;;12.69;100.00;100664.97;4894513;29;20044;-80
2023/05/11 00:27:37;;;;;;;17.27;12.45;;;;;;;12.71;100.00;100667.56;4881688;29;20052;-85
2023/05/11 00:30:04;;;;;;;16.42;11.70;;;;;;;12.71;100.00;100664.94;4897519;29;20372;-80
2023/05/11 00:32:30;;;;;;;18.15;13.18;;;;;;;12.68;100.00;100663.25;4893144;29;20041;-80
2023/05/11 00:34:57;;;;;;;17.70;11.43;;;;;;;12.67;100.00;100661.53;4893351;29;20052;-92
2023/05/11 00:37:23;;;;;;;17.38;11.00;;;;;;;12.67;100.00;100666.78;4889167;29;20113;-81
2023/05/11 00:39:50;;;;;;;17.35;12.80;;;;;;;12.67;100.00;100664.16;4897215;29;20048;-81
2023/05/11 00:42:16;;;;;;;20.48;13.55;;;;;;;12.66;100.00;100662.41;4895365;29;20099;-83
2023/05/11 00:44:43;;;;;;;13.05;10.00;;;;;;;12.66;100.00;100659.78;4898794;29;20041;-81
2023/05/11 00:47:09;;;;;;;15.52;11.57;;;;;;;12.64;100.00;100665.97;4894181;29;20055;-80
2023/05/11 00:49:36;;;;;;;16.75;11.38;;;;;;;12.63;100.00;100659.81;4897483;29;20143;-81
2023/05/11 00:52:03;;;;;;;17.13;11.10;;;;;;;12.62;100.00;100666.00;4890007;29;20040;-81
2023/05/11 00:54:30;;;;;;;14.73;10.85;;;;;;;12.63;100.00;100664.22;4882231;29;20054;-80
2023/05/11 00:56:56;;;;;;;14.27;11.07;;;;;;;12.63;100.00;100669.47;4898309;29;20052;-82
2023/05/11 00:59:23;;;;;;;15.05;11.32;;;;;;;12.61;100.00;100669.50;4874887;29;20449;-81
2023/05/11 01:01:50;;;;;;;14.48;9.95;;;;;;;12.61;100.00;100668.66;4883304;29;20041;-82
2023/05/11 01:04:16;;;;;;;16.17;11.75;;;;;;;12.62;100.00;100670.38;4894955;29;20049;-83
2023/05/11 01:07:03;;;;;;;18.83;12.75;;;;;;;12.58;100.00;100672.19;4884898;29;20082;-81
2023/05/11 01:09:54;;;;;;;15.75;11.85;;;;;;;12.57;100.00;100671.31;4893596;29;20101;-81
2023/05/11 01:12:53;;;;;;;16.98;11.35;;;;;;;12.56;100.00;100671.34;4907861;29;20128;-88
2023/05/11 01:15:45;;;;;;;12.35;9.18;;;;;;;12.51;100.00;100668.78;4890388;29;20498;-83
2023/05/11 01:18:40;;;;;;;10.63;8.45;;;;;;;12.49;100.00;100673.22;4909357;29;20071;-81
2023/05/11 01:21:09;;;;;;;10.55;8.43;;;;;;;12.48;100.00;100674.09;4865987;29;20483;-81
2023/05/11 01:24:32;;;;;;;12.88;9.43;;;;;;;12.40;100.00;100674.22;4892743;29;20034;-81
2023/05/11 01:27:43;;;;;;;12.50;8.82;;;;;;;12.32;100.00;100672.59;4830498;29;20048;-81
2023/05/11 01:30:28;;;;;;;11.23;9.45;;;;;;;12.26;100.00;100675.34;4888389;29;20070;-81
2023/05/11 01:32:59;;;;;;;9.88;7.93;;;;;;;12.22;100.00;100670.13;4894785;29;20139;-81
2023/05/11 01:35:29;;;;;;;10.55;8.02;;;;;;;12.19;100.00;100674.53;4894328;29;20063;-83
2023/05/11 01:37:58;;;;;;;9.73;8.27;;;;;;;12.18;100.00;100672.84;4891828;29;20044;-84
2023/05/11 01:40:34;;;;;;;9.00;8.13;;;;;;;12.17;100.00;100677.19;4880414;29;20057;-90
2023/05/11 01:43:06;;;;;;;9.68;7.97;;;;;;;12.15;100.00;100679.00;4895743;29;20041;-81
2023/05/11 01:45:36;;;;;;;9.43;8.02;;;;;;;12.13;100.00;100677.28;4892629;29;20045;-81
2023/05/11 01:48:07;;;;;;;13.00;8.05;;;;;;;12.12;100.00;100676.41;4890653;29;20063;-81
2023/05/11 01:50:35;;;;;;;8.48;6.68;;;;;;;12.12;100.00;100681.66;4888968;29;20353;-81
2023/05/11 01:53:04;;;;;;;8.18;7.30;;;;;;;12.10;100.00;100679.94;4891818;29;20093;-81
2023/05/11 01:55:34;;;;;;;7.85;6.82;;;;;;;12.09;100.00;100676.47;4892791;29;20400;-79
2023/05/11 01:58:04;;;;;;;7.32;6.32;;;;;;;12.06;100.00;100680.00;4894598;29;20060;-80
2023/05/11 02:00:32;;;;;;;7.40;6.70;;;;;;;12.07;100.00;100679.09;4890036;29;20054;-80
2023/05/11 02:03:02;;;;;;;6.70;6.00;;;;;;;12.07;100.00;100680.84;4887833;29;20053;-92
2023/05/11 02:05:29;;;;;;;9.30;7.07;;;;;;;12.10;100.00;100683.44;4890815;29;20036;-81
2023/05/11 02:08:00;;;;;;;7.70;6.95;;;;;;;12.08;100.00;100679.97;4888236;29;20056;-90
2023/05/11 02:10:27;;;;;;;6.75;6.05;;;;;;;12.09;100.00;100684.31;4888000;29;20048;-87
2023/05/11 02:12:55;;;;;;;6.50;6.00;;;;;;;12.07;100.00;100681.72;4889184;29;20487;-81
2023/05/11 02:15:23;;;;;;;6.22;5.63;;;;;;;12.06;100.00;100679.13;4894164;29;20798;-82
2023/05/11 02:17:51;;;;;;;7.47;6.25;;;;;;;12.06;100.00;100682.63;4891983;29;20048;-82
2023/05/11 02:20:19;;;;;;;6.72;6.07;;;;;;;12.07;100.00;100681.72;4891907;29;20523;-81
2023/05/11 02:22:46;;;;;;;6.82;5.85;;;;;;;12.06;100.00;100682.63;4894309;29;20051;-85
2023/05/11 02:25:15;;;;;;;7.93;6.82;;;;;;;12.06;100.00;100682.63;4885879;29;20041;-83
2023/05/11 02:27:41;;;;;;;8.38;6.65;;;;;;;12.05;100.00;100683.50;4885558;29;20060;-80
2023/05/11 02:30:09;;;;;;;5.07;4.57;;;;;;;12.06;100.00;100687.88;4891440;29;20040;-84
2023/05/11 02:32:38;;;;;;;5.57;5.07;;;;;;;12.06;100.00;100692.25;4866611;29;20052;-80
2023/05/11 02:35:17;;;;;;;7.20;6.47;;;;;;;12.05;100.00;100690.53;4884152;29;20479;-81
2023/05/11 02:37:46;;;;;;;8.25;6.30;;;;;;;12.02;100.00;100686.19;4886353;29;20053;-80
2023/05/11 02:40:18;;;;;;;6.03;5.43;;;;;;;12.05;100.00;100698.38;4895018;29;20041;-80
2023/05/11 02:42:48;;;;;;;6.45;5.75;;;;;;;12.02;100.00;100686.19;4889568;29;20120;-80
2023/05/11 02:45:16;;;;;;;4.97;4.57;;;;;;;12.02;100.00;100688.81;4894542;29;20488;-82
2023/05/11 02:47:51;;;;;;;5.25;4.75;;;;;;;12.02;100.00;100688.81;4877506;29;20049;-82
2023/05/11 02:50:19;;;;;;;5.95;5.40;;;;;;;12.01;100.00;100687.06;4871409;29;20045;-82
2023/05/11 02:52:48;;;;;;;5.10;4.70;;;;;;;12.03;100.00;100684.41;4886823;29;20105;-81
2023/05/11 02:55:17;;;;;;;5.78;5.28;;;;;;;12.04;100.00;100687.00;4881869;29;20158;-84
2023/05/11 02:57:45;;;;;;;5.60;5.10;;;;;;;12.06;100.00;100687.88;4887292;29;20108;-80
2023/05/11 03:00:12;;;;;;;5.88;5.28;;;;;;;12.07;100.00;100686.09;4895059;29;20468;-81
2023/05/11 03:02:39;;;;;;;4.97;4.47;;;;;;;12.07;100.00;100694.84;4882929;29;20115;-80
2023/05/11 03:05:06;;;;;;;5.72;5.22;;;;;;;12.10;100.00;100690.44;4885772;29;20071;-93
2023/05/11 03:07:33;;;;;;;4.63;4.22;;;;;;;12.11;100.00;100689.56;4884109;29;20609;-89
2023/05/11 03:10:03;;;;;;;5.35;4.85;;;;;;;12.12;100.00;100691.28;4890837;29;20044;-83
2023/05/11 03:12:33;;;;;;;5.72;5.18;;;;;;;12.11;100.00;100690.44;4887399;29;20097;-82
2023/05/11 03:15:01;;;;;;;6.22;4.95;;;;;;;12.11;100.00;100687.81;4885366;29;20472;-87
2023/05/11 03:17:29;;;;;;;5.20;4.78;;;;;;;12.10;100.00;100696.56;4862742;29;20053;-84
2023/05/11 03:19:58;;;;;;;5.22;4.72;;;;;;;12.09;100.00;100686.94;4907420;29;20063;-91
2023/05/11 03:22:27;;;;;;;4.38;3.97;;;;;;;12.09;100.00;100689.56;4908507;29;20037;-88
2023/05/11 03:24:53;;;;;;;8.18;4.63;;;;;;;12.12;100.00;100697.38;4902203;29;20111;-80
2023/05/11 03:27:20;;;;;;;5.28;4.78;;;;;;;12.12;100.00;100689.53;4889763;29;20041;-81
2023/05/11 03:29:48;;;;;;;5.10;4.55;;;;;;;12.12;100.00;100689.53;4894663;29;20051;-81
2023/05/11 03:32:15;;;;;;;4.82;4.43;;;;;;;12.14;100.00;100693.00;4899581;29;20059;-79
2023/05/11 03:34:41;;;;;;;5.07;4.68;;;;;;;12.15;100.00;100693.84;4891896;29;20053;-80
2023/05/11 03:37:12;;;;;;;5.55;4.57;;;;;;;12.16;100.00;100687.72;4896381;29;20056;-80
2023/05/11 03:39:41;;;;;;;4.93;4.53;;;;;;;12.17;100.00;100689.47;4897174;29;20041;-82
2023/05/11 03:42:08;;;;;;;5.22;4.82;;;;;;;12.15;100.00;100688.59;4889179;29;20052;-86
2023/05/11 03:44:36;;;;;;;5.43;4.93;;;;;;;12.14;100.00;100686.91;4919010;29;20045;-83
2023/05/11 03:47:03;;;;;;;6.50;5.72;;;;;;;12.13;100.00;100688.63;4887384;29;20055;-81
2023/05/11 03:49:31;;;;;;;5.60;5.10;;;;;;;12.13;100.00;100686.00;4893032;29;20137;-88
2023/05/11 03:51:57;;;;;;;4.72;4.32;;;;;;;12.15;100.00;100691.22;4890326;29;20053;-80
2023/05/11 03:54:24;;;;;;;5.03;4.50;;;;;;;12.15;100.00;100683.38;4893220;29;20056;-82
2023/05/11 03:56:51;;;;;;;5.47;4.82;;;;;;;12.18;100.00;100680.72;4905369;29;20052;-80
2023/05/11 03:59:18;;;;;;;5.50;5.00;;;;;;;12.18;100.00;100683.34;4880295;29;20560;-84
2023/05/11 04:01:45;;;;;;;5.25;4.80;;;;;;;12.21;100.00;100686.75;4893604;29;20049;-81
2023/05/11 04:04:11;;;;;;;5.20;4.75;;;;;;;12.23;100.00;100686.75;4894885;29;20041;-80
2023/05/11 04:06:40;;;;;;;5.65;5.15;;;;;;;12.23;100.00;100687.59;4890995;29;20044;-86
2023/05/11 04:09:06;;;;;;;5.85;5.28;;;;;;;12.26;100.00;100685.84;4891547;29;20484;-80
2023/05/11 04:11:37;;;;;;;8.50;5.82;;;;;;;12.26;100.00;100688.47;4879648;29;20045;-83
2023/05/11 04:14:04;;;;;;;5.05;4.43;;;;;;;12.26;100.00;100683.22;4898112;29;20040;-79
2023/05/11 04:16:30;;;;;;;6.07;5.25;;;;;;;12.29;100.00;100685.78;4896831;29;20531;-80
2023/05/11 04:19:00;;;;;;;6.07;5.10;;;;;;;12.32;100.00;100684.00;4880299;29;20650;-82
2023/05/11 04:21:27;;;;;;;5.60;5.10;;;;;;;12.34;100.00;100689.22;4886317;29;20045;-85
2023/05/11 04:23:54;;;;;;;4.78;4.32;;;;;;;12.35;100.00;100690.94;4895846;29;20040;-81
2023/05/11 04:26:21;;;;;;;6.10;5.50;;;;;;;12.36;100.00;100684.81;4877712;29;20393;-83
2023/05/11 04:28:47;;;;;;;6.20;5.60;;;;;;;12.38;100.00;100691.78;4881197;29;20471;-81
2023/05/11 04:31:19;;;;;;;4.60;4.20;;;;;;;12.40;100.00;100692.59;4881014;29;20056;-80
2023/05/11 04:33:46;;;;;;;6.90;5.32;;;;;;;12.45;100.00;100689.03;4899284;29;20400;-80
2023/05/11 04:36:15;;;;;;;6.22;5.72;;;;;;;12.47;100.00;100690.72;4879053;29;20048;-80
2023/05/11 04:38:41;;;;;;;7.10;6.40;;;;;;;12.47;100.00;100684.63;4896199;29;20119;-84
2023/05/11 04:41:10;;;;;;;7.38;6.57;;;;;;;12.49;100.00;100688.06;4879526;29;20051;-81
2023/05/11 04:43:39;;;;;;;7.32;6.68;;;;;;;12.48;100.00;100695.09;4894587;29;20531;-81
2023/05/11 04:46:06;;;;;;;7.80;7.00;;;;;;;12.47;100.00;100698.63;4881307;29;20072;-83
2023/05/11 04:48:33;;;;;;;8.18;7.28;;;;;;;12.49;100.00;100695.97;4872344;29;20060;-81
2023/05/11 04:51:00;;;;;;;7.03;6.35;;;;;;;12.52;100.00;100695.94;4894339;29;20068;-82
2023/05/11 04:53:27;;;;;;;9.30;8.30;;;;;;;12.55;100.00;100690.59;4895404;29;20179;-81
2023/05/11 04:55:53;;;;;;;8.02;7.22;;;;;;;12.51;100.00;100696.81;4900679;29;20289;-84
2023/05/11 04:58:20;;;;;;;8.55;7.63;;;;;;;12.48;100.00;100700.34;4881766;29;20049;-81
2023/05/11 05:00:47;;;;;;;8.93;8.02;;;;;;;12.52;100.00;100694.16;4895188;29;20882;-82
2023/05/11 05:03:13;;;;;;;8.07;7.18;;;;;;;12.58;100.00;100698.47;4901155;29;20029;-83
2023/05/11 05:05:40;;;;;;;6.78;6.13;;;;;;;12.64;100.00;100705.34;4892474;29;20133;-83
2023/05/11 05:08:07;;;;;;;9.38;6.72;;;;;;;12.69;100.00;100703.53;4888534;29;20036;-81
2023/05/11 05:10:33;;;;;;;10.60;7.25;;;;;;;12.73;100.00;100705.19;4898270;29;20106;-83
2023/05/11 05:13:00;;;;;;;8.20;7.50;;;;;;;12.74;100.00;100710.41;4894310;29;20048;-83
2023/05/11 05:15:26;;;;;;;8.57;7.68;;;;;;;12.79;100.00;100706.84;4891186;29;20045;-81
2023/05/11 05:17:53;;;;;;;8.75;7.78;;;;;;;12.85;100.00;100714.63;4884099;29;20044;-81
2023/05/11 05:20:19;;;;;;;9.20;8.30;;;;;;;12.88;100.00;100711.94;4880498;29;20556;-80
2023/05/11 05:22:46;;;;;;;10.20;8.40;;;;;;;12.88;100.00;100710.19;4895251;29;20040;-81
2023/05/11 05:25:12;;;;;;;9.82;8.82;;;;;;;12.93;100.00;100709.25;4892832;29;20055;-85
2023/05/11 05:27:39;;;;;;;9.32;8.45;;;;;;;12.97;100.00;100713.53;4886005;29;20057;-88
2023/05/11 05:30:07;;;;;;;9.80;8.80;;;;;;;13.01;100.00;100715.22;4902330;29;20051;-80
2023/05/11 05:32:33;;;;;;;11.10;9.48;;;;;;;13.00;100.00;100711.72;4896793;29;20212;-80
2023/05/11 05:35:00;;;;;;;10.27;8.82;;;;;;;13.00;100.00;100714.34;4896343;29;20052;-82
2023/05/11 05:37:26;;;;;;;10.23;9.05;;;;;;;13.07;100.00;100720.38;4887359;29;20041;-81
2023/05/11 05:39:53;;;;;;;12.85;11.13;;;;;;;13.08;100.00;100719.47;4876729;29;20045;-80
2023/05/11 05:42:21;;;;;;;10.05;9.05;;;;;;;13.14;100.00;100722.00;4895175;29;20085;-81
2023/05/11 05:44:48;;;;;;;11.65;9.35;;;;;;;13.24;100.00;100718.31;4888580;29;20064;-81
2023/05/11 05:47:14;;;;;;;10.98;9.85;;;;;;;13.30;100.00;100726.97;4895658;29;20555;-83
2023/05/11 05:49:41;;;;;;;13.13;11.63;;;;;;;13.28;100.00;100729.59;4875637;29;20051;-80
2023/05/11 05:52:13;;;;;;;13.13;11.70;;;;;;;13.24;100.00;100734.06;4878280;29;20049;-82
2023/05/11 05:54:41;;;;;;;12.90;11.48;;;;;;;13.27;100.00;100732.28;4889866;29;20048;-80
2023/05/11 05:57:07;;;;;;;13.35;11.55;;;;;;;13.27;100.00;100733.16;4893008;29;20515;-81
2023/05/11 05:59:35;;;;;;;13.10;11.70;;;;;;;13.27;100.00;100735.78;4892943;29;20152;-80
2023/05/11 06:02:02;;;;;;;13.95;12.50;;;;;;;13.33;100.00;100740.91;4893190;29;20044;-87
2023/05/11 06:04:29;;;;;;;14.82;13.32;;;;;;;13.36;100.00;100737.34;4892627;29;20514;-84
2023/05/11 06:06:58;;;;;;;15.32;13.45;;;;;;;13.33;100.00;100743.53;4871729;29;20052;-81
2023/05/11 06:09:25;;;;;;;12.20;11.00;;;;;;;13.35;100.00;100746.13;4890905;29;20080;-83
2023/05/11 06:11:52;;;;;;;15.65;13.40;;;;;;;13.37;100.00;100742.59;4890388;29;20059;-81
2023/05/11 06:14:21;;;;;;;15.02;13.25;;;;;;;13.39;100.00;100739.97;4878001;29;20052;-92
2023/05/11 06:16:48;;;;;;;13.02;11.70;;;;;;;13.42;100.00;100744.31;4889134;29;20480;-81
2023/05/11 06:19:15;;;;;;;15.85;13.90;;;;;;;13.49;100.00;100746.78;4874430;29;20041;-80
2023/05/11 06:21:44;;;;;;;17.55;14.60;;;;;;;13.46;100.00;100759.97;4881135;29;20055;-82
2023/05/11 06:24:10;;;;;;;14.45;12.95;;;;;;;13.41;100.00;100748.69;4892566;29;20207;-80
2023/05/11 06:26:37;;;;;;;16.35;14.13;;;;;;;13.39;100.00;100747.88;4891313;29;20135;-81
2023/05/11 06:29:03;;;;;;;15.27;13.65;;;;;;;13.33;100.00;100747.94;4886120;29;20040;-81
2023/05/11 06:31:30;;;;;;;19.00;14.30;;;;;;;13.32;100.00;100740.94;4888588;29;20048;-82
2023/05/11 06:33:56;;;;;;;15.50;13.48;;;;;;;13.28;100.00;100745.38;4890619;29;20080;-81
2023/05/11 06:36:23;;;;;;;13.30;12.00;;;;;;;13.27;100.00;100743.66;4889432;29;20040;-82
2023/05/11 06:38:50;;;;;;;14.60;13.07;;;;;;;13.32;100.00;100747.03;4888142;29;20045;-85
2023/05/11 06:41:16;;;;;;;16.63;14.30;;;;;;;13.40;100.00;100744.31;4889010;29;20108;-88
2023/05/11 06:43:43;;;;;;;13.32;11.45;;;;;;;13.45;100.00;100750.34;4892596;29;20051;-81
2023/05/11 06:46:14;;;;;;;15.32;12.82;;;;;;;13.46;100.00;100745.97;4873577;29;20064;-82
2023/05/11 06:48:44;;;;;;;17.05;13.50;;;;;;;13.50;100.00;100745.00;4892378;29;20041;-82
2023/05/11 06:51:11;;;;;;;14.45;12.80;;;;;;;13.52;100.00;100746.72;4886193;29;20041;-81
2023/05/11 06:53:39;;;;;;;18.83;14.68;;;;;;;13.54;100.00;100742.28;4872449;29;20076;-82
2023/05/11 06:56:06;;;;;;;14.63;12.77;;;;;;;13.53;100.00;100740.56;4893387;29;20158;-91
2023/05/11 06:58:32;;;;;;;14.85;13.25;;;;;;;13.55;100.00;100741.38;4893557;29;20577;-82
2023/05/11 07:00:59;;;;;;;14.15;12.13;;;;;;;13.57;100.00;100758.00;4895250;29;20044;-81
2023/05/11 07:03:25;;;;;;;15.52;13.30;;;;;;;13.60;100.00;100743.06;4898015;29;20077;-85
2023/05/11 07:05:52;;;;;;;16.58;13.13;;;;;;;13.64;100.00;100753.50;4875165;29;20057;-82
2023/05/11 07:08:19;;;;;;;15.48;12.70;;;;;;;13.60;100.00;100746.56;4896170;29;20045;-81
2023/05/11 07:10:45;;;;;;;15.75;13.55;;;;;;;13.60;100.00;100743.94;4908582;29;20120;-80
2023/05/11 07:13:13;;;;;;;17.67;14.77;;;;;;;13.56;100.00;100747.53;4898357;29;20056;-89
2023/05/11 07:15:39;;;;;;;16.27;13.02;;;;;;;13.50;100.00;100751.13;4905785;29;20049;-82
2023/05/11 07:18:05;;;;;;;17.25;12.95;;;;;;;13.46;100.00;100751.22;4873763;29;20049;-85
2023/05/11 07:20:35;;;;;;;14.57;13.02;;;;;;;13.39;100.00;100742.59;4886625;29;20369;-85
2023/05/11 07:23:02;;;;;;;17.30;13.63;;;;;;;13.38;100.00;100752.22;4892646;29;20037;-81
2023/05/11 07:25:29;;;;;;;16.58;13.52;;;;;;;13.36;100.00;100753.13;4890889;29;20045;-81
2023/05/11 07:27:55;;;;;;;13.25;11.43;;;;;;;13.37;100.00;100752.28;4885627;29;20045;-82
2023/05/11 07:30:23;;;;;;;15.88;13.20;;;;;;;13.39;100.00;100746.09;4892756;29;20415;-83
2023/05/11 07:32:49;;;;;;;21.08;14.30;;;;;;;13.46;100.00;100745.97;4877406;29;20085;-85
2023/05/11 07:35:16;;;;;;;16.77;12.98;;;;;;;13.51;100.00;100752.00;4894225;29;20112;-81
2023/05/11 07:37:42;;;;;;;12.52;11.05;;;;;;;13.56;100.00;100752.78;4881791;29;20052;-85
2023/05/11 07:40:10;;;;;;;14.85;13.27;;;;;;;13.56;100.00;100747.53;4881096;29;20140;-84
2023/05/11 07:42:36;;;;;;;12.23;10.68;;;;;;;13.63;100.00;100753.53;4888364;29;20187;-80
2023/05/11 07:45:03;;;;;;;14.73;12.05;;;;;;;13.67;100.00;100749.94;4900168;29;20041;-83
2023/05/11 07:47:30;;;;;;;15.30;12.82;;;;;;;13.69;100.00;100749.00;4874913;29;20060;-82
2023/05/11 07:49:57;;;;;;;14.00;11.57;;;;;;;13.72;100.00;100759.47;4882565;29;20096;-83
2023/05/11 07:52:25;;;;;;;17.50;11.38;;;;;;;13.78;100.00;100753.22;4880542;29;20066;-83
2023/05/11 07:54:52;;;;;;;14.43;12.18;;;;;;;13.86;100.00;100759.19;4892633;29;20068;-82
2023/05/11 07:57:19;;;;;;;14.07;12.60;;;;;;;13.87;100.00;100760.03;4910217;29;20060;-84
2023/05/11 07:59:46;;;;;;;15.27;11.80;;;;;;;13.86;100.00;100761.81;4897064;29;20044;-82
2023/05/11 08:02:13;;;;;;;14.18;11.80;;;;;;;13.84;100.00;100763.59;4896289;29;20037;-81
2023/05/11 08:04:40;;;;;;;10.90;9.13;;;;;;;13.76;100.00;100762.91;4881241;29;20045;-82
2023/05/11 08:07:09;;;;;;;13.27;10.55;;;;;;;13.76;100.00;100756.78;4897873;29;20044;-87
2023/05/11 08:09:36;;;;;;;12.45;9.38;;;;;;;13.75;100.00;100762.94;4875062;29;20255;-82
2023/05/11 08:12:02;;;;;;;13.30;10.95;;;;;;;13.77;100.00;100764.63;4892380;29;20433;-84
2023/05/11 08:14:29;;;;;;;12.57;11.10;;;;;;;13.71;100.00;100762.13;4880930;29;20456;-82
2023/05/11 08:16:55;;;;;;;12.00;10.57;;;;;;;13.63;100.00;100770.16;4900980;29;20100;-86
2023/05/11 08:19:22;;;;;;;11.40;9.93;;;;;;;13.60;100.00;100764.97;4892386;29;20484;-82
2023/05/11 08:21:48;;;;;;;9.98;8.98;;;;;;;13.60;100.00;100767.59;4885565;29;20049;-81
2023/05/11 08:24:15;;;;;;;10.65;9.55;;;;;;;13.60;100.00;100758.84;4899874;29;20100;-81
2023/05/11 08:26:42;;;;;;;10.70;9.63;;;;;;;13.60;100.00;100769.34;4882085;29;20400;-81
2023/05/11 08:29:08;;;;;;;10.07;8.68;;;;;;;13.64;100.00;100778.94;4895905;29;20124;-84
2023/05/11 08:31:35;;;;;;;10.68;9.40;;;;;;;13.65;100.00;100767.50;4903228;29;20353;-81
2023/05/11 08:34:16;;;;;;;13.20;10.27;;;;;;;13.71;100.00;100770.91;4887221;29;20066;-81
2023/05/11 08:36:44;;;;;;;11.45;9.77;;;;;;;13.78;100.00;100771.63;4888595;29;20515;-81
2023/05/11 08:39:11;;;;;;;11.13;8.57;;;;;;;13.87;100.00;100774.06;4894507;29;20123;-83
2023/05/11 08:41:37;;;;;;;9.43;8.43;;;;;;;13.88;100.00;100773.19;4893170;29;20045;-81
2023/05/11 08:44:06;;;;;;;11.75;10.55;;;;;;;13.89;100.00;100760.88;4888689;29;20539;-80
2023/05/11 08:46:35;;;;;;;8.23;7.38;;;;;;;13.85;100.00;100772.38;4897692;29;20284;-85
2023/05/11 08:49:02;;;;;;;9.05;8.20;;;;;;;13.84;100.00;100770.63;4895441;29;20100;-81
2023/05/11 08:51:29;;;;;;;8.75;7.93;;;;;;;13.84;100.00;100770.63;4892094;29;20472;-82
2023/05/11 08:53:58;;;;;;;9.98;8.98;;;;;;;13.79;100.00;100768.09;4888277;29;20495;-84
2023/05/11 08:56:26;;;;;;;9.65;7.72;;;;;;;13.81;100.00;100771.56;4895892;29;20277;-81
2023/05/11 08:58:55;;;;;;;10.40;9.27;;;;;;;13.79;100.00;100775.13;4893865;29;20492;-81
2023/05/11 09:01:23;;;;;;;7.22;6.57;;;;;;;13.73;100.00;100771.72;4879948;29;20052;-84
2023/05/11 09:03:53;;;;;;;9.45;8.45;;;;;;;13.71;100.00;100775.28;4893256;29;20119;-80
2023/05/11 09:06:20;;;;;;;8.57;7.70;;;;;;;13.72;100.00;100769.13;4894226;29;20047;-81
2023/05/11 09:08:48;;;;;;;7.82;6.25;;;;;;;13.71;100.00;100775.28;4887867;29;20076;-82
2023/05/11 09:11:15;;;;;;;8.45;6.32;;;;;;;13.75;100.00;100774.31;4879081;29;20050;-89
2023/05/11 09:13:41;;;;;;;7.40;6.22;;;;;;;13.78;100.00;100778.66;4896338;29;20080;-82
2023/05/11 09:16:08;;;;;;;6.22;5.63;;;;;;;13.78;100.00;100768.13;4889427;29;20041;-84
2023/05/11 09:18:35;;;;;;;6.55;5.35;;;;;;;13.80;100.00;100779.50;4923138;23;20059;-89
2023/05/11 09:21:01;;;;;;;8.40;6.88;;;;;;;13.88;100.00;100769.66;4951444;28;20047;-84
2023/05/11 09:23:28;;;;;;;8.18;6.82;;;;;;;13.88;100.00;100773.19;4930416;29;20047;-86
2023/05/11 09:25:55;;;;;;;7.15;6.43;;;;;;;13.90;100.00;100774.00;4945958;29;20133;-81
2023/05/11 09:28:26;;;;;;;7.40;6.70;;;;;;;13.90;100.00;100773.16;4928404;28;20667;-81
2023/05/11 09:30:53;;;;;;;7.65;6.72;;;;;;;13.92;100.00;100773.13;4943271;28;20142;-80
2023/05/11 09:33:26;;;;;;;8.13;7.32;;;;;;;13.97;100.00;100774.75;4940256;28;20043;-85
2023/05/11 09:35:53;;;;;;;7.45;6.65;;;;;;;14.02;100.00;100772.03;4920770;29;20454;-80
2023/05/11 09:38:27;;;;;;;7.03;6.38;;;;;;;14.03;100.00;100765.88;4921688;29;20104;-80
2023/05/11 09:40:55;;;;;;;6.45;5.85;;;;;;;14.00;100.00;100772.06;4937046;29;20051;-82
2023/05/11 09:43:32;;;;;;;6.03;5.43;;;;;;;13.89;100.00;100774.03;4939856;29;20095;-87
2023/05/11 09:46:05;;;;;;;9.73;7.00;;;;;;;13.83;100.00;100782.94;4937609;29;20494;-81
2023/05/11 09:48:34;;;;;;;8.27;6.35;;;;;;;13.79;100.00;100777.75;4954775;29;20047;-80
2023/05/11 09:51:08;;;;;;;5.70;5.20;;;;;;;13.76;100.00;100781.31;4919371;29;20050;-81
2023/05/11 09:53:44;;;;;;;6.88;6.00;;;;;;;13.84;100.00;100775.91;4948952;28;20043;-82
2023/05/11 09:56:17;;;;;;;6.40;5.28;;;;;;;13.90;100.00;100778.41;4935211;28;20066;-80
2023/05/11 09:58:58;;;;;;;5.95;5.10;;;;;;;13.92;100.00;100770.47;4939536;29;20031;-86
2023/05/11 10:01:33;;;;;;;5.80;5.18;;;;;;;14.01;100.00;100772.91;4936014;29;20147;-81
2023/05/11 10:04:02;;;;;;;6.05;5.45;;;;;;;14.10;100.00;100767.44;4939750;28;20042;-83
2023/05/11 10:06:44;;;;;;;5.13;4.63;;;;;;;14.09;100.00;100770.13;4934814;29;20051;-83
2023/05/11 10:09:12;;;;;;;4.95;4.45;;;;;;;14.07;100.00;100765.75;4916999;29;20047;-84
2023/05/11 10:11:44;;;;;;;6.43;5.43;;;;;;;14.05;100.00;100769.31;4939501;28;20251;-84
2023/05/11 10:14:13;;;;;;;4.60;4.20;;;;;;;14.06;100.00;100765.78;4935320;29;20039;-85
2023/05/11 10:16:43;;;;;;;5.35;4.85;;;;;;;14.01;100.00;100765.00;4926322;28;20499;-82
2023/05/11 10:19:13;;;;;;;5.55;5.05;;;;;;;13.97;100.00;100764.22;4925175;29;20051;-85
2023/05/11 10:21:39;;;;;;;5.93;5.32;;;;;;;13.96;100.00;100758.97;4918959;29;20040;-83
2023/05/11 10:24:07;;;;;;;5.57;5.18;;;;;;;14.03;100.00;100758.81;4910592;29;20040;-87
2023/05/11 10:26:34;;;;;;;10.07;6.90;;;;;;;14.02;100.00;100756.22;4899822;29;20687;-82
2023/05/11 10:29:01;;;;;;;9.70;5.97;;;;;;;14.01;100.00;100762.38;4903440;29;20482;-80
2023/05/11 10:31:30;;;;;;;5.32;4.70;;;;;;;13.93;100.00;100753.78;4912588;29;20487;-82
2023/05/11 10:33:57;;;;;;;4.88;4.47;;;;;;;13.89;100.00;100759.09;4904395;29;20573;-84
2023/05/11 10:36:25;;;;;;;6.07;5.10;;;;;;;13.88;100.00;100752.13;4917344;29;20040;-81
2023/05/11 10:38:51;;;;;;;4.72;4.32;;;;;;;13.88;100.00;100748.63;4906894;29;20039;-81
2023/05/11 10:41:41;;;;;;;5.32;4.38;;;;;;;13.84;100.00;100750.44;4911396;29;20123;-81
2023/05/11 10:44:42;;;;;;;4.93;4.43;;;;;;;13.78;100.00;100761.13;4906151;29;20046;-83
2023/05/11 10:47:40;;;;;;;5.57;5.00;;;;;;;13.69;100.00;100756.03;4914067;29;20044;-82
2023/05/11 10:50:28;;;;;;;5.63;4.97;;;;;;;13.65;100.00;100759.59;4897425;29;20056;-83
2023/05/11 10:53:24;;;;;;;7.47;5.40;;;;;;;13.60;100.00;100756.19;4913083;29;20122;-82
2023/05/11 10:56:25;;;;;;;5.22;4.72;;;;;;;13.60;100.00;100753.56;4925339;29;20439;-82
2023/05/11 10:59:27;;;;;;;6.72;5.88;;;;;;;13.60;100.00;100753.56;4925904;29;20079;-82
2023/05/11 11:01:57;;;;;;;7.88;6.32;;;;;;;13.62;100.00;100759.69;4922497;29;20047;-81
2023/05/11 11:04:24;;;;;;;8.07;5.95;;;;;;;13.60;100.00;100758.84;4920536;29;20040;-82
2023/05/11 11:07:06;;;;;;;9.07;6.63;;;;;;;13.51;100.00;100758.13;4925859;29;20043;-83
2023/05/11 11:09:58;;;;;;;9.68;7.93;;;;;;;13.40;100.00;100760.97;4917290;29;20131;-82
2023/05/11 11:12:28;;;;;;;11.40;6.35;;;;;;;13.31;100.00;100760.22;4921997;29;20043;-82
2023/05/11 11:15:05;;;;;;;12.38;7.63;;;;;;;13.29;100.00;100762.03;4918980;29;20047;-83
2023/05/11 11:17:34;;;;;;;8.50;6.65;;;;;;;13.30;100.00;100761.16;4905026;29;20052;-81
2023/05/11 11:20:06;;;;;;;13.02;6.72;;;;;;;13.22;100.00;100756.03;4918946;29;20082;-82
2023/05/11 11:22:37;;;;;;;12.10;7.78;;;;;;;13.21;100.00;100757.78;4927394;29;20043;-81